createdAt,value
2018-07-17T00:00:46.866Z,19.90
2018-07-17T00:03:14.944Z,19.90
2018-07-17T00:05:43.008Z,19.80
2018-07-17T00:08:11.063Z,19.80
2018-07-17T00:10:39.189Z,19.70
2018-07-17T00:13:07.280Z,19.70
2018-07-17T00:15:35.351Z,19.70
2018-07-17T00:18:03.406Z,19.70
2018-07-17T00:20:31.454Z,19.70
2018-07-17T00:22:59.490Z,19.70
2018-07-17T00:25:27.970Z,19.80
2018-07-17T00:27:56.040Z,19.80
2018-07-17T00:32:52.014Z,19.70
2018-07-17T00:35:20.042Z,19.70
2018-07-17T00:37:48.138Z,19.60
2018-07-17T00:40:16.254Z,19.60
2018-07-17T00:42:44.353Z,19.60
2018-07-17T00:45:12.443Z,19.60
2018-07-17T00:47:40.490Z,19.70
2018-07-17T00:50:08.583Z,19.80
2018-07-17T00:52:36.641Z,19.90
2018-07-17T00:55:04.730Z,19.90
2018-07-17T00:57:32.856Z,19.90
2018-07-17T01:00:00.940Z,19.90
2018-07-17T01:02:34.434Z,19.90
2018-07-17T01:05:07.954Z,19.90
2018-07-17T01:07:41.524Z,19.80
2018-07-17T01:10:15.084Z,19.80
2018-07-17T01:12:42.458Z,19.70
2018-07-17T01:15:15.803Z,19.70
2018-07-17T01:17:43.952Z,19.70
2018-07-17T01:20:11.996Z,19.70
2018-07-17T01:22:40.063Z,19.70
2018-07-17T01:25:08.619Z,19.70
2018-07-17T01:27:36.690Z,19.70
2018-07-17T01:30:04.746Z,19.70
2018-07-17T01:32:32.831Z,19.70
2018-07-17T01:35:01.005Z,19.60
2018-07-17T01:37:29.062Z,19.60
2018-07-17T01:39:57.209Z,19.60
2018-07-17T01:42:25.295Z,19.60
2018-07-17T01:44:53.367Z,19.60
2018-07-17T01:47:21.442Z,19.60
2018-07-17T01:49:49.531Z,19.50
2018-07-17T01:52:17.604Z,19.50
2018-07-17T01:54:45.744Z,19.50
2018-07-17T01:57:13.835Z,19.40
2018-07-17T01:59:41.919Z,19.40
2018-07-17T02:02:10.038Z,19.40
2018-07-17T02:04:38.146Z,19.40
2018-07-17T02:07:06.266Z,19.30
2018-07-17T02:09:34.397Z,19.30
2018-07-17T02:12:02.480Z,19.20
2018-07-17T02:14:30.614Z,19.30
2018-07-17T02:16:58.730Z,19.20
2018-07-17T02:19:26.809Z,19.20
2018-07-17T02:21:54.850Z,19.20
2018-07-17T02:24:22.922Z,19.20
2018-07-17T02:26:50.975Z,19.20
2018-07-17T02:29:19.047Z,19.10
2018-07-17T02:31:47.129Z,19.10
2018-07-17T02:34:15.205Z,19.20
2018-07-17T02:36:43.305Z,19.10
2018-07-17T02:39:11.402Z,19.10
2018-07-17T02:41:39.487Z,19.10
2018-07-17T02:44:07.594Z,19.10
2018-07-17T02:46:35.667Z,19.10
2018-07-17T02:49:03.791Z,19.10
2018-07-17T02:51:31.930Z,19.10
2018-07-17T02:54:00.032Z,19.10
2018-07-17T02:56:28.147Z,19.20
2018-07-17T02:58:56.354Z,19.20
2018-07-17T03:01:24.492Z,19.20
2018-07-17T03:03:52.585Z,19.20
2018-07-17T03:06:20.667Z,19.20
2018-07-17T03:08:48.703Z,19.20
2018-07-17T03:11:16.886Z,19.20
2018-07-17T03:13:44.983Z,19.20
2018-07-17T03:16:13.123Z,19.10
2018-07-17T03:18:41.226Z,19.10
2018-07-17T03:21:09.316Z,19.10
2018-07-17T03:23:37.386Z,19.10
2018-07-17T03:26:05.507Z,19.10
2018-07-17T03:28:33.722Z,19.10
2018-07-17T03:31:01.866Z,19.10
2018-07-17T03:33:30.034Z,19.10
2018-07-17T03:35:58.169Z,19.10
2018-07-17T03:38:26.266Z,19.10
2018-07-17T03:40:54.391Z,19.10
2018-07-17T03:43:22.561Z,19.10
2018-07-17T03:45:50.642Z,19.10
2018-07-17T03:48:18.731Z,19.10
2018-07-17T03:50:46.831Z,19.10
2018-07-17T03:53:14.930Z,19.10
2018-07-17T03:55:43.036Z,19.10
2018-07-17T03:58:11.147Z,19.20
2018-07-17T04:00:39.272Z,19.20
2018-07-17T04:03:07.392Z,19.20
2018-07-17T04:05:35.467Z,19.20
2018-07-17T04:08:03.624Z,19.30
2018-07-17T04:10:31.703Z,19.30
2018-07-17T04:12:59.812Z,19.30
2018-07-17T04:15:27.949Z,19.30
2018-07-17T04:17:56.102Z,19.30
2018-07-17T04:20:24.240Z,19.30
2018-07-17T04:22:52.373Z,19.40
2018-07-17T04:27:48.778Z,19.60
2018-07-17T04:30:16.915Z,19.60
2018-07-17T04:32:45.040Z,19.70
2018-07-17T04:35:13.338Z,19.70
2018-07-17T04:37:41.456Z,19.80
2018-07-17T04:40:09.585Z,19.90
2018-07-17T04:42:37.983Z,20.00
2018-07-17T04:45:06.193Z,20.10
2018-07-17T04:47:34.304Z,20.20
2018-07-17T04:50:02.439Z,20.30
2018-07-17T04:52:30.602Z,20.40
2018-07-17T04:54:58.698Z,20.40
2018-07-17T04:57:26.814Z,20.40
2018-07-17T04:59:54.926Z,20.40
2018-07-17T05:02:23.012Z,20.50
2018-07-17T05:04:51.105Z,20.50
2018-07-17T05:07:19.235Z,20.60
2018-07-17T05:09:47.332Z,20.60
2018-07-17T05:12:15.430Z,20.70
2018-07-17T05:14:43.556Z,20.70
2018-07-17T05:17:11.698Z,20.80
2018-07-17T05:19:39.840Z,20.80
2018-07-17T05:22:07.910Z,20.90
2018-07-17T05:24:36.045Z,20.90
2018-07-17T05:27:04.170Z,20.90
2018-07-17T05:29:32.354Z,20.90
2018-07-17T05:32:00.488Z,20.90
2018-07-17T05:34:28.600Z,20.90
2018-07-17T05:36:56.684Z,21.00
2018-07-17T05:39:24.817Z,20.90
2018-07-17T05:41:52.935Z,20.90
2018-07-17T05:44:21.029Z,20.90
2018-07-17T05:46:49.106Z,20.90
2018-07-17T05:49:17.229Z,21.00
2018-07-17T05:51:45.355Z,21.10
2018-07-17T05:54:13.451Z,21.20
2018-07-17T05:56:41.591Z,21.30
2018-07-17T05:59:09.735Z,21.40
2018-07-17T06:01:37.837Z,21.50
2018-07-17T06:06:33.934Z,21.70
2018-07-17T06:09:02.047Z,21.90
2018-07-17T06:11:30.202Z,22.00
2018-07-17T06:13:58.336Z,22.10
2018-07-17T06:16:26.462Z,22.30
2018-07-17T06:18:54.566Z,22.40
2018-07-17T06:21:22.669Z,22.50
2018-07-17T06:23:50.792Z,22.70
2018-07-17T06:28:46.872Z,23.00
2018-07-17T06:31:15.099Z,23.20
2018-07-17T06:33:43.195Z,23.30
2018-07-17T06:36:11.443Z,23.30
2018-07-17T06:38:39.515Z,23.30
2018-07-17T06:41:07.591Z,23.30
2018-07-17T06:43:35.748Z,23.30
2018-07-17T06:46:03.959Z,23.40
2018-07-17T06:48:32.031Z,23.50
2018-07-17T06:51:00.179Z,23.50
2018-07-17T06:53:28.352Z,23.60
2018-07-17T06:55:56.467Z,23.60
2018-07-17T06:58:24.598Z,23.60
2018-07-17T07:00:52.670Z,23.60
2018-07-17T07:03:20.839Z,23.70
2018-07-17T07:05:48.990Z,23.70
2018-07-17T07:08:17.325Z,23.80
2018-07-17T07:10:45.475Z,23.80
2018-07-17T07:13:13.575Z,23.80
2018-07-17T07:15:41.657Z,23.80
2018-07-17T07:18:09.761Z,23.90
2018-07-17T07:20:38.032Z,23.90
2018-07-17T07:23:06.490Z,23.90
2018-07-17T07:25:34.687Z,23.80
2018-07-17T07:28:02.737Z,23.90
2018-07-17T07:30:30.796Z,23.80
2018-07-17T07:32:58.925Z,23.80
2018-07-17T07:35:27.069Z,23.80
2018-07-17T07:37:55.152Z,23.70
2018-07-17T07:40:23.236Z,23.80
2018-07-17T07:42:51.368Z,23.90
2018-07-17T07:45:19.429Z,24.20
2018-07-17T07:47:47.482Z,24.30
2018-07-17T07:50:15.624Z,24.30
2018-07-17T07:52:43.724Z,24.50
2018-07-17T07:55:11.864Z,24.60
2018-07-17T08:00:07.867Z,25.10
2018-07-17T08:02:35.938Z,25.40
2018-07-17T08:05:04.045Z,25.70
2018-07-17T08:07:32.197Z,25.90
2018-07-17T08:10:00.340Z,25.90
2018-07-17T08:12:28.466Z,25.80
2018-07-17T08:14:56.571Z,25.50
2018-07-17T08:17:24.660Z,25.30
2018-07-17T08:19:52.713Z,25.20
2018-07-17T08:22:20.788Z,25.20
2018-07-17T08:24:48.898Z,25.20
2018-07-17T08:27:17.020Z,25.10
2018-07-17T08:29:45.172Z,25.20
2018-07-17T08:32:13.214Z,25.20
2018-07-17T08:34:41.444Z,25.40
2018-07-17T08:37:09.542Z,25.40
2018-07-17T08:39:37.766Z,25.40
2018-07-17T08:42:06.065Z,25.30
2018-07-17T08:44:34.147Z,25.40
2018-07-17T08:49:30.226Z,25.50
2018-07-17T08:51:58.470Z,25.70
2018-07-17T08:54:26.679Z,25.70
2018-07-17T08:56:54.741Z,25.80
2018-07-17T08:59:22.842Z,25.70
2018-07-17T09:01:50.950Z,25.60
2018-07-17T09:04:19.027Z,25.40
2018-07-17T09:06:47.134Z,25.50
2018-07-17T09:09:15.265Z,25.60
2018-07-17T09:11:43.348Z,25.70
2018-07-17T09:14:11.435Z,25.80
2018-07-17T09:16:39.545Z,25.90
2018-07-17T09:19:07.629Z,26.00
2018-07-17T09:21:35.968Z,26.10
2018-07-17T09:26:31.944Z,26.20
2018-07-17T09:29:00.034Z,26.40
2018-07-17T09:31:28.110Z,26.40
2018-07-17T09:33:56.260Z,26.40
2018-07-17T09:36:24.302Z,26.30
2018-07-17T09:38:52.486Z,26.30
2018-07-17T09:41:20.634Z,26.40
2018-07-17T09:43:48.750Z,26.40
2018-07-17T09:46:16.831Z,26.50
2018-07-17T09:48:44.975Z,26.60
2018-07-17T09:51:13.095Z,26.80
2018-07-17T09:53:41.167Z,26.80
2018-07-17T09:56:09.237Z,26.90
2018-07-17T09:58:37.302Z,27.00
2018-07-17T10:01:11.001Z,27.20
2018-07-17T10:03:39.149Z,27.30
2018-07-17T10:06:07.252Z,27.30
2018-07-17T10:08:35.415Z,27.40
2018-07-17T10:11:03.495Z,27.40
2018-07-17T10:13:31.621Z,27.40
2018-07-17T10:15:59.724Z,27.40
2018-07-17T10:18:27.846Z,27.30
2018-07-17T10:20:55.911Z,27.20
2018-07-17T10:23:24.048Z,27.20
2018-07-17T10:25:52.108Z,27.30
2018-07-17T10:28:20.172Z,27.20
2018-07-17T10:30:48.370Z,27.30
2018-07-17T10:33:16.412Z,27.50
2018-07-17T10:35:44.457Z,27.50
2018-07-17T10:38:12.532Z,27.50
2018-07-17T10:40:40.563Z,27.50
2018-07-17T10:43:09.030Z,27.50
2018-07-17T10:45:37.119Z,27.40
2018-07-17T10:48:05.226Z,27.40
2018-07-17T10:50:33.339Z,27.50
2018-07-17T10:53:01.475Z,27.60
2018-07-17T10:55:29.543Z,27.70
2018-07-17T10:57:57.756Z,27.80
2018-07-17T11:00:25.855Z,27.90
2018-07-17T11:02:54.156Z,27.80
2018-07-17T11:05:22.237Z,27.90
2018-07-17T11:07:50.309Z,27.80
2018-07-17T11:10:18.397Z,27.80
2018-07-17T11:12:46.507Z,27.90
2018-07-17T11:15:14.625Z,27.90
2018-07-17T11:17:42.711Z,28.00
2018-07-17T11:20:10.899Z,28.10
2018-07-17T11:22:39.007Z,28.10
2018-07-17T11:25:07.381Z,28.00
2018-07-17T11:27:35.716Z,28.10
2018-07-17T11:30:04.365Z,28.20
2018-07-17T11:35:00.388Z,28.40
2018-07-17T11:37:28.495Z,28.60
2018-07-17T11:39:56.582Z,28.70
2018-07-17T11:42:24.751Z,28.70
2018-07-17T11:44:52.906Z,28.80
2018-07-17T11:47:20.995Z,28.70
2018-07-17T11:49:49.119Z,28.80
2018-07-17T11:52:17.184Z,29.00
2018-07-17T11:54:45.386Z,29.00
2018-07-17T11:57:13.483Z,28.90
2018-07-17T11:59:41.604Z,28.80
2018-07-17T12:02:09.671Z,28.90
2018-07-17T12:04:37.840Z,28.90
2018-07-17T12:07:05.975Z,29.00
2018-07-17T12:09:34.049Z,29.00
2018-07-17T12:12:02.149Z,29.00
2018-07-17T12:14:30.305Z,29.10
2018-07-17T12:16:58.408Z,29.10
2018-07-17T12:19:26.476Z,29.10
2018-07-17T12:21:54.572Z,29.10
2018-07-17T12:24:22.798Z,29.10
2018-07-17T12:26:50.941Z,29.10
2018-07-17T12:29:19.046Z,29.20
2018-07-17T12:31:47.233Z,29.30
2018-07-17T12:34:15.314Z,29.20
2018-07-17T12:36:43.371Z,29.20
2018-07-17T12:39:12.552Z,29.10
2018-07-17T12:41:40.734Z,29.00
2018-07-17T12:46:37.050Z,28.80
2018-07-17T12:49:05.146Z,28.80
2018-07-17T12:51:33.443Z,28.90
2018-07-17T12:54:01.731Z,28.80
2018-07-17T12:56:29.824Z,28.70
2018-07-17T12:58:57.911Z,28.70
2018-07-17T13:01:26.003Z,28.70
2018-07-17T13:03:54.121Z,28.70
2018-07-17T13:06:22.266Z,28.60
2018-07-17T13:08:50.359Z,28.60
2018-07-17T13:11:18.467Z,28.70
2018-07-17T13:13:46.612Z,28.70
2018-07-17T13:18:42.682Z,28.50
2018-07-17T13:21:10.823Z,28.50
2018-07-17T13:23:38.966Z,28.60
2018-07-17T13:26:07.278Z,28.80
2018-07-17T13:28:35.440Z,28.80
2018-07-17T13:31:03.596Z,28.90
2018-07-17T13:33:31.675Z,28.90
2018-07-17T13:35:59.740Z,28.80
2018-07-17T13:38:27.964Z,28.70
2018-07-17T13:40:56.057Z,28.60
2018-07-17T13:43:24.185Z,28.70
2018-07-17T13:45:52.328Z,28.80
2018-07-17T13:48:20.524Z,28.80
2018-07-17T13:50:48.628Z,28.90
2018-07-17T13:53:16.920Z,28.90
2018-07-17T13:55:45.018Z,29.00
2018-07-17T13:58:13.115Z,29.10
2018-07-17T14:00:41.184Z,29.20
2018-07-17T14:03:09.362Z,29.20
2018-07-17T14:05:37.501Z,29.20
2018-07-17T14:08:05.734Z,29.00
2018-07-17T14:10:33.862Z,28.80
2018-07-17T14:13:02.022Z,28.40
2018-07-17T14:15:30.131Z,28.20
2018-07-17T14:17:58.235Z,27.90
2018-07-17T14:20:26.338Z,27.80
2018-07-17T14:22:54.391Z,27.70
2018-07-17T14:25:22.514Z,27.80
2018-07-17T14:27:50.699Z,27.90
2018-07-17T14:30:18.900Z,28.10
2018-07-17T14:32:46.937Z,28.30
2018-07-17T14:35:15.078Z,28.60
2018-07-17T14:37:43.163Z,28.70
2018-07-17T14:40:11.261Z,28.80
2018-07-17T14:42:39.349Z,28.90
2018-07-17T14:45:07.897Z,29.00
2018-07-17T14:47:35.993Z,29.00
2018-07-17T14:50:04.480Z,29.00
2018-07-17T14:52:32.696Z,28.90
2018-07-17T14:57:28.739Z,28.90
2018-07-17T14:59:57.138Z,28.90
2018-07-17T15:02:25.314Z,28.80
2018-07-17T15:04:53.413Z,28.80
2018-07-17T15:07:21.545Z,28.70
2018-07-17T15:09:49.809Z,28.80
2018-07-17T15:12:17.905Z,28.80
2018-07-17T15:14:46.012Z,28.60
2018-07-17T15:17:14.145Z,28.50
2018-07-17T15:19:42.338Z,28.40
2018-07-17T15:22:10.477Z,28.40
2018-07-17T15:24:38.538Z,28.30
2018-07-17T15:27:06.669Z,28.20
2018-07-17T15:29:34.764Z,28.20
2018-07-17T15:32:02.906Z,28.00
2018-07-17T15:34:30.975Z,28.00
2018-07-17T15:36:59.059Z,27.90
2018-07-17T15:39:27.184Z,27.90
2018-07-17T15:41:55.250Z,28.00
2018-07-17T15:44:23.322Z,28.00
2018-07-17T15:46:51.543Z,28.00
2018-07-17T15:49:19.755Z,27.90
2018-07-17T15:51:47.861Z,27.90
2018-07-17T15:54:15.960Z,27.90
2018-07-17T15:56:44.103Z,27.90
2018-07-17T15:59:12.271Z,27.80
2018-07-17T16:01:40.350Z,27.70
2018-07-17T16:04:08.438Z,27.80
2018-07-17T16:09:06.219Z,27.60
2018-07-17T16:11:34.295Z,27.60
2018-07-17T16:14:02.759Z,27.60
2018-07-17T16:16:30.552Z,27.70
2018-07-17T16:18:58.730Z,27.60
2018-07-17T16:21:26.956Z,27.60
2018-07-17T16:23:55.094Z,27.60
2018-07-17T16:28:51.100Z,27.60
2018-07-17T16:31:19.263Z,27.60
2018-07-17T16:33:47.543Z,27.50
2018-07-17T16:36:15.846Z,27.40
2018-07-17T16:38:44.034Z,27.20
2018-07-17T16:41:12.124Z,27.00
2018-07-17T16:43:40.232Z,26.90
2018-07-17T16:46:08.348Z,26.90
2018-07-17T16:48:36.648Z,26.90
2018-07-17T16:51:04.733Z,27.00
2018-07-17T16:53:32.865Z,27.00
2018-07-17T16:56:00.929Z,26.90
2018-07-17T16:58:29.070Z,26.80
2018-07-17T17:00:57.399Z,26.70
2018-07-17T17:03:25.576Z,26.70
2018-07-17T17:05:53.705Z,26.70
2018-07-17T17:08:21.804Z,26.60
2018-07-17T17:10:49.931Z,26.70
2018-07-17T17:13:18.011Z,26.40
2018-07-17T17:15:46.157Z,26.50
2018-07-17T17:18:14.360Z,26.40
2018-07-17T17:20:42.460Z,26.30
2018-07-17T17:23:10.558Z,26.30
2018-07-17T17:25:38.639Z,26.20
2018-07-17T17:28:06.727Z,26.20
2018-07-17T17:30:34.856Z,26.20
2018-07-17T17:33:02.907Z,26.20
2018-07-17T17:35:30.964Z,26.20
2018-07-17T17:37:59.236Z,26.10
2018-07-17T17:42:55.322Z,25.80
2018-07-17T17:45:23.475Z,25.60
2018-07-17T17:47:51.482Z,25.40
2018-07-17T17:50:20.422Z,25.30
2018-07-17T17:52:48.496Z,25.10
2018-07-17T17:55:16.668Z,25.10
2018-07-17T17:57:44.881Z,25.00
2018-07-17T18:00:13.000Z,24.90
2018-07-17T18:02:41.082Z,24.90
2018-07-17T18:05:09.144Z,24.80
2018-07-17T18:07:37.300Z,24.80
2018-07-17T18:10:05.384Z,24.90
2018-07-17T18:12:33.562Z,24.90
2018-07-17T18:15:01.795Z,24.90
2018-07-17T18:17:30.004Z,24.90
2018-07-17T18:19:58.064Z,24.80
2018-07-17T18:22:26.202Z,24.70
2018-07-17T18:24:54.292Z,24.70
2018-07-17T18:27:22.398Z,24.70
2018-07-17T18:29:50.495Z,24.60
2018-07-17T18:32:18.651Z,24.60
2018-07-17T18:34:46.712Z,24.50
2018-07-17T18:37:14.849Z,24.30
2018-07-17T18:39:42.983Z,24.20
2018-07-17T18:42:11.130Z,24.20
2018-07-17T18:44:39.228Z,24.10
2018-07-17T18:47:07.530Z,24.10
2018-07-17T18:49:35.648Z,24.00
2018-07-17T18:52:03.959Z,24.00
2018-07-17T18:54:32.121Z,23.90
2018-07-17T18:57:00.271Z,23.80
2018-07-17T18:59:28.428Z,23.70
2018-07-17T19:01:56.572Z,23.70
2018-07-17T19:06:52.618Z,23.60
2018-07-17T19:09:20.859Z,23.60
2018-07-17T19:11:48.928Z,23.50
2018-07-17T19:14:17.083Z,23.50
2018-07-17T19:16:45.216Z,23.50
2018-07-17T19:19:13.381Z,23.50
2018-07-17T19:21:41.476Z,23.50
2018-07-17T19:24:09.792Z,23.40
2018-07-17T19:26:37.939Z,23.40
2018-07-17T19:29:06.377Z,23.40
2018-07-17T19:31:34.495Z,23.40
2018-07-17T19:34:02.607Z,23.30
2018-07-17T19:36:30.745Z,23.30
2018-07-17T19:38:58.854Z,23.30
2018-07-17T19:41:26.960Z,23.30
2018-07-17T19:43:55.102Z,23.30
2018-07-17T19:46:23.236Z,23.30
2018-07-17T19:48:51.343Z,23.20
2018-07-17T19:51:19.469Z,23.20
2018-07-17T19:53:47.545Z,23.20
2018-07-17T19:56:15.692Z,23.20
2018-07-17T19:58:43.782Z,23.10
2018-07-17T20:01:11.886Z,23.10
2018-07-17T20:03:39.984Z,23.00
2018-07-17T20:06:08.083Z,23.00
2018-07-17T20:08:36.269Z,23.00
2018-07-17T20:11:04.256Z,23.00
2018-07-17T20:13:32.392Z,22.90
2018-07-17T20:16:00.501Z,22.90
2018-07-17T20:18:28.601Z,22.90
2018-07-17T20:20:56.717Z,22.90
2018-07-17T20:23:24.825Z,22.80
2018-07-17T20:28:20.891Z,22.80
2018-07-17T20:30:49.035Z,22.80
2018-07-17T20:33:17.698Z,22.70
2018-07-17T20:35:45.804Z,22.70
2018-07-17T20:38:13.924Z,22.60
2018-07-17T20:40:42.029Z,22.60
2018-07-17T20:43:10.161Z,22.60
2018-07-17T20:45:38.283Z,22.60
2018-07-17T20:48:06.479Z,22.60
2018-07-17T20:50:34.581Z,22.60
2018-07-17T20:53:02.785Z,22.50
2018-07-17T20:55:30.865Z,22.50
2018-07-17T20:57:58.938Z,22.60
2018-07-17T21:00:27.086Z,22.50
2018-07-17T21:02:55.216Z,22.50
2018-07-17T21:05:23.267Z,22.50
2018-07-17T21:07:51.362Z,22.40
2018-07-17T21:10:19.448Z,22.40
2018-07-17T21:12:47.547Z,22.40
2018-07-17T21:15:15.620Z,22.40
2018-07-17T21:17:43.734Z,22.30
2018-07-17T21:20:11.848Z,22.30
2018-07-17T21:22:39.928Z,22.30
2018-07-17T21:25:08.039Z,22.30
2018-07-17T21:27:36.159Z,22.30
2018-07-17T21:30:04.411Z,22.30
2018-07-17T21:32:32.499Z,22.30
2018-07-17T21:35:00.614Z,22.20
2018-07-17T21:37:28.797Z,22.20
2018-07-17T21:39:57.080Z,22.20
2018-07-17T21:42:25.176Z,22.20
2018-07-17T21:44:53.331Z,22.20
2018-07-17T21:47:21.685Z,22.20
2018-07-17T21:49:49.815Z,22.10
2018-07-17T21:52:17.948Z,22.10
2018-07-17T21:54:46.065Z,22.10
2018-07-17T21:57:14.195Z,22.10
2018-07-17T21:59:42.264Z,22.10
2018-07-17T22:02:10.310Z,22.10
2018-07-17T22:04:38.438Z,22.10
2018-07-17T22:07:06.521Z,22.10
2018-07-17T22:09:34.612Z,22.10
2018-07-17T22:12:02.662Z,22.10
2018-07-17T22:14:30.907Z,22.10
2018-07-17T22:16:59.002Z,22.10
2018-07-17T22:19:27.091Z,22.00
2018-07-17T22:21:55.176Z,22.00
2018-07-17T22:24:23.234Z,22.00
2018-07-17T22:26:51.327Z,22.00
2018-07-17T22:29:19.406Z,22.00
2018-07-17T22:31:47.495Z,22.00
2018-07-17T22:34:15.556Z,22.00
2018-07-17T22:36:43.750Z,22.00
2018-07-17T22:39:11.821Z,22.00
2018-07-17T22:41:39.923Z,22.00
2018-07-17T22:44:08.087Z,21.90
2018-07-17T22:46:36.210Z,21.90
2018-07-17T22:49:04.266Z,21.90
2018-07-17T22:51:32.337Z,21.90
2018-07-17T22:54:00.450Z,21.90
2018-07-17T22:56:28.576Z,21.90
2018-07-17T22:58:56.622Z,21.80
2018-07-17T23:01:24.760Z,21.90
2018-07-17T23:03:52.822Z,21.90
2018-07-17T23:06:20.878Z,21.90
2018-07-17T23:08:49.028Z,21.90
2018-07-17T23:11:17.319Z,21.90
2018-07-17T23:13:45.639Z,21.90
2018-07-17T23:16:14.222Z,21.90
2018-07-17T23:18:42.293Z,21.90
2018-07-17T23:21:10.394Z,21.90
2018-07-17T23:23:38.503Z,21.90
2018-07-17T23:26:06.721Z,21.90
2018-07-17T23:28:34.819Z,21.90
2018-07-17T23:31:02.963Z,21.90
2018-07-17T23:33:31.041Z,21.90
2018-07-17T23:35:59.125Z,21.90
2018-07-17T23:38:27.240Z,21.90
2018-07-17T23:40:55.358Z,21.80
2018-07-17T23:43:23.495Z,21.80
2018-07-17T23:45:51.607Z,21.90
2018-07-17T23:48:19.667Z,21.80
2018-07-17T23:50:47.838Z,21.80
2018-07-17T23:53:15.935Z,21.80
2018-07-17T23:55:44.056Z,21.70
2018-07-17T23:58:12.134Z,21.80
